Terminal Aerodrome Forecast
Issued by NWS Grand Forks, ND

Home | Current Version | Previous Version | Text Only | Print | Product List | Glossary On
Versions: 1 2 3 4 5 6 7 8 9 10 11 12 13 14 15 16 17
000
FTUS43 KFGF 271731 AAB
TAFGFK
TAF AMD
KGFK 271731Z 2718/2818 34015G24KT P6SM SCT025
      TEMPO 2718/2722 BKN025
     FM272300 34013KT P6SM BKN035
     FM280100 01006KT P6SM SCT050
     FM281500 VRB03KT P6SM SCT050=

USA.gov is the U.S. government's official web portal to all federal, state and local government web resources and services.